• Join FlightAware (Why Join?)
  • Login
  • US Flag 
04:58AM EDT


 

Airport Tracker/Info


-or-


 

Live Flight TrackerFlight Track Log ✈ N884FT ✈ 05-Nov-2013 ✈ KTPA - KMLB

Flight Track Log - Related Links

Times and Time Zones

All times are in EST time to prevent confusion due to time zone crossing. See the N884FT flight status page for this flight to view local times or setup timezone preferences in your user account.

Time Position Orientation Groundspeed Altitude Reporting Facility
EST Latitude Longitude Course Direction KTS MPH feet Rate Location/Type
09:57AM 28.0667 -82.2167 85° East 110 127 3,300  Level Tampa TRACON
09:58AM 28.0500 -82.2000 139° Southeast 86 99 4,200 780 Climbing Tampa TRACON
09:59AM 28.0500 -82.1667 90° East 89 102 4,900 300 Climbing Tampa TRACON
10:00AM 28.0333 -82.1333 120° Southeast 131 151 4,900  Level Tampa TRACON
10:01AM 27.9980 -82.2261 85° East  Level Estimated
10:01AM 28.0167 -82.0833 111° Southeast 130 150 4,900  Level Tampa TRACON
10:02AM 28.0010 -82.1843 85° East  Level Estimated
10:04AM 28.0219 -82.0018 84° East  Level Estimated
10:11AM 28.0096 -81.7078 84° East  Level FlightAware Approximate
10:12AM 28.0132 -81.6660 84° East  Level FlightAware Approximate
10:13AM 28.0169 -81.6243 84° East  Level FlightAware Approximate
10:14AM 28.0205 -81.5825 84° East  Level FlightAware Approximate
10:15AM 28.0241 -81.5408 84° East  Level FlightAware Approximate
10:16AM 28.0277 -81.4990 84° East  Level FlightAware Approximate
10:17AM 28.0313 -81.4573 84° East  Level FlightAware Approximate
10:18AM 28.0349 -81.4155 84° East  Level FlightAware Approximate
10:19AM 28.0384 -81.3738 84° East  Level FlightAware Approximate
10:20AM 28.0420 -81.3320 84° East  Level FlightAware Approximate
10:21AM 28.0455 -81.2903 85° East  Level FlightAware Approximate
10:22AM 28.0490 -81.2485 85° East  Level FlightAware Approximate
10:23AM 28.0525 -81.2067 85° East  Level FlightAware Approximate
10:24AM 28.0560 -81.1649 85° East  Level FlightAware Approximate
10:25AM 28.0595 -81.1232 85° East  Level FlightAware Approximate
10:26AM 28.0630 -81.0814 85° East  Level FlightAware Approximate
10:27AM 28.0664 -81.0396 85° East  Level FlightAware Approximate
10:28AM 28.0699 -80.9978 85° East  Level FlightAware Approximate
10:29AM 28.0733 -80.9560 85° East  Level FlightAware Approximate
10:30AM 28.0767 -80.9142 85° East  Level FlightAware Approximate
10:31AM 28.0802 -80.8725 85° East  Level FlightAware Approximate
10:32AM 28.0833 -80.8306 90° East  Level FlightAware Approximate
10:33AM 28.0833 -80.7887 90° East  Level FlightAware Approximate
10:34AM 28.0833 -80.7467 90° East  Level FlightAware Approximate
10:35AM 28.0880 -80.7052 79° East  Level FlightAware Approximate
10:36AM 28.0949 -80.6640 79° East  Level FlightAware Approximate
10:37AM 28.1028 -80.6453 79° East  Level Estimated
10:38AM 28.1028 -80.6453 79° East  Level Estimated
10:39AM 28.1028 -80.6453 79° East  Level Estimated
10:40AM 28.1028 -80.6453 79° East  Level Estimated
10:41AM 28.1028 -80.6453 79° East  Level Estimated
10:41AM 28.1000 -80.7000 79° East 83 96 600  Level Orlando TRACON
10:42AM 28.1028 -80.6453 79° East  Level Estimated
10:42AM 28.1000 -80.6833 90° East 75 86 300  Level Orlando TRACON
10:43AM 28.1028 -80.6453 79° East  Level Estimated
10:44AM 28.1028 -80.6453 79° East  Level Estimated
10:45AM 28.1028 -80.6453 79° East  Level Estimated
10:46AM 28.1028 -80.6453 79° East  Level Estimated